Time;durP1;ratioP1;P1;durP2;ratioP2;P2;SDS_P1;SDS_P2;PMS_P1;PMS_P2;Temp;Humidity;BMP_temperature;BMP_pressure;BME280_temperature;BME280_humidity;BME280_pressure;Samples;Min_cycle;Max_cycle;Signal;HPM_P1;HPM_P2
2023/03/25 00:01:07;;;;;;;7.40;1.88;;;;;;;10.77;69.29;100013.84;3615496;39;20106;-66
2023/03/25 00:03:40;;;;;;;6.43;1.60;;;;;;;10.78;69.67;100007.47;3609929;39;20055;-67
2023/03/25 00:06:08;;;;;;;7.70;1.85;;;;;;;10.80;69.17;100018.97;3608936;39;20064;-68
2023/03/25 00:08:34;;;;;;;9.05;2.20;;;;;;;10.82;68.90;100002.75;3609707;39;20058;-67
2023/03/25 00:11:03;;;;;;;6.20;1.88;;;;;;;10.81;68.83;100006.41;3607695;39;20047;-67
2023/03/25 00:13:34;;;;;;;9.20;2.20;;;;;;;10.76;69.48;100014.81;3607461;39;20062;-67
2023/03/25 00:16:02;;;;;;;7.07;1.92;;;;;;;10.80;69.54;100010.06;3606385;39;20508;-68
2023/03/25 00:18:33;;;;;;;9.77;2.35;;;;;;;10.77;68.69;100019.22;3607504;39;20065;-67
2023/03/25 00:21:06;;;;;;;11.07;2.33;;;;;;;10.76;68.74;100022.88;3609949;39;20054;-67
2023/03/25 00:23:31;;;;;;;6.10;1.85;;;;;;;10.77;68.97;100016.53;3607935;39;20302;-67
2023/03/25 00:25:59;;;;;;;7.18;1.70;;;;;;;10.74;68.36;100007.84;3610806;39;20058;-67
2023/03/25 00:28:32;;;;;;;7.22;1.77;;;;;;;10.74;68.85;99994.41;3611666;39;20053;-67
2023/03/25 00:31:01;;;;;;;5.57;1.40;;;;;;;10.70;68.19;99999.16;3594927;39;20095;-67
2023/03/25 00:33:28;;;;;;;5.13;2.00;;;;;;;10.69;68.03;99995.63;3607120;39;20119;-68
2023/03/25 00:35:57;;;;;;;6.90;1.98;;;;;;;10.70;67.79;99999.16;3610125;39;20339;-68
2023/03/25 00:38:33;;;;;;;9.40;2.38;;;;;;;10.53;67.91;99975.38;3610656;39;20386;-66
2023/03/25 00:41:24;;;;;;;6.38;1.75;;;;;;;10.71;68.33;100000.00;3610011;39;21675;-67
2023/03/25 00:43:58;;;;;;;10.75;1.92;;;;;;;10.50;67.81;99959.47;3609671;39;20446;-68
2023/03/25 00:46:29;;;;;;;8.13;1.90;;;;;;;10.72;68.22;99996.34;3608430;39;20108;-67
2023/03/25 00:48:57;;;;;;;7.38;1.40;;;;;;;10.62;67.88;99986.28;3610924;39;20047;-70
2023/03/25 00:51:25;;;;;;;9.88;1.90;;;;;;;10.69;68.45;99992.06;3611228;39;20430;-68
2023/03/25 00:53:55;;;;;;;7.13;1.50;;;;;;;10.67;68.08;99991.31;3610437;39;20059;-66
2023/03/25 00:56:22;;;;;;;7.22;1.77;;;;;;;10.67;67.90;99994.00;3607171;39;20103;-66
2023/03/25 00:58:48;;;;;;;7.65;1.65;;;;;;;10.64;68.34;99995.09;3612319;39;20061;-66
2023/03/25 01:01:25;;;;;;;8.07;1.70;;;;;;;10.65;68.47;99987.88;3608691;39;20055;-66
2023/03/25 01:03:59;;;;;;;7.50;1.85;;;;;;;10.63;68.39;99992.53;3612433;39;20051;-66
2023/03/25 01:06:34;;;;;;;6.03;1.55;;;;;;;10.59;69.18;99974.91;3610985;39;20050;-66
2023/03/25 01:09:05;;;;;;;4.35;1.52;;;;;;;10.59;69.15;99985.66;3608652;39;20062;-66
2023/03/25 01:11:37;;;;;;;7.40;1.90;;;;;;;10.57;68.72;99993.00;3599555;39;20051;-65
2023/03/25 01:14:20;;;;;;;4.82;1.10;;;;;;;10.54;68.56;99993.22;3610222;39;20124;-66
2023/03/25 01:16:46;;;;;;;5.53;1.50;;;;;;;10.49;68.64;99995.38;3609911;39;20043;-66
2023/03/25 01:19:13;;;;;;;5.05;1.60;;;;;;;10.50;69.25;99976.47;3609690;39;20051;-66
2023/03/25 01:21:39;;;;;;;5.22;1.48;;;;;;;10.27;69.27;99943.25;3608166;39;20381;-66
2023/03/25 01:24:10;;;;;;;4.63;1.48;;;;;;;10.30;69.26;99951.09;3607919;39;20055;-65
2023/03/25 01:26:36;;;;;;;2.88;1.30;;;;;;;10.44;69.00;99985.84;3609296;39;20430;-65
2023/03/25 01:29:02;;;;;;;5.78;1.52;;;;;;;10.39;69.39;99990.69;3610469;39;20047;-65
2023/03/25 01:31:29;;;;;;;5.60;1.33;;;;;;;10.38;69.40;99989.00;3609509;39;20051;-66
2023/03/25 01:33:58;;;;;;;4.65;1.70;;;;;;;10.34;69.90;99987.53;3608438;39;20558;-66
2023/03/25 01:36:28;;;;;;;3.17;1.65;;;;;;;10.32;69.79;99993.97;3608697;39;20120;-66
2023/03/25 01:38:54;;;;;;;5.65;1.48;;;;;;;10.30;69.67;99991.38;3608897;39;20047;-66
2023/03/25 01:41:20;;;;;;;2.92;1.45;;;;;;;10.25;69.57;99987.31;3607463;39;20407;-67
2023/03/25 01:44:08;;;;;;;3.35;1.30;;;;;;;10.29;69.54;99989.69;3606560;39;20054;-66
2023/03/25 01:46:37;;;;;;;4.65;1.50;;;;;;;10.26;70.06;99999.75;3607900;39;20059;-67
2023/03/25 01:49:08;;;;;;;5.50;1.58;;;;;;;10.26;70.38;100002.44;3609291;39;20062;-66
2023/03/25 01:51:41;;;;;;;3.17;1.85;;;;;;;10.25;69.99;99982.78;3596502;39;20093;-66
2023/03/25 01:54:08;;;;;;;6.13;2.08;;;;;;;10.21;70.43;99973.22;3607213;39;20102;-66
2023/03/25 01:56:41;;;;;;;2.85;1.23;;;;;;;10.18;70.66;99989.56;3607704;39;20124;-67
2023/03/25 01:59:10;;;;;;;4.10;1.30;;;;;;;10.17;69.57;99974.44;3609300;39;20091;-66
2023/03/25 02:01:36;;;;;;;3.95;1.23;;;;;;;10.19;69.64;99983.25;3608810;39;20349;-66
2023/03/25 02:04:08;;;;;;;3.88;1.30;;;;;;;10.20;70.30;99985.81;3607729;39;20054;-67
2023/03/25 02:06:52;;;;;;;2.17;1.02;;;;;;;9.96;69.98;99940.16;3609587;39;20117;-67
2023/03/25 02:09:24;;;;;;;4.32;1.52;;;;;;;10.25;70.04;99976.56;3599440;39;20128;-67
2023/03/25 02:11:53;;;;;;;3.13;1.35;;;;;;;10.24;69.82;99973.00;3609845;39;20407;-67
2023/03/25 02:14:26;;;;;;;6.47;1.50;;;;;;;10.21;71.01;99981.28;3609980;39;20382;-66
2023/03/25 02:17:31;;;;;;;3.67;1.17;;;;;;;9.54;70.63;99864.47;3606539;39;20127;-66
2023/03/25 02:20:28;;;;;;;3.85;1.40;;;;;;;10.18;71.21;99966.28;3606638;39;20059;-67
2023/03/25 02:23:11;;;;;;;7.68;1.35;;;;;;;10.19;70.05;99967.97;3614181;39;20082;-66
2023/03/25 02:26:41;;;;;;;4.10;1.52;;;;;;;10.21;70.08;99975.91;3610715;39;20066;-66
2023/03/25 02:29:24;;;;;;;3.85;1.45;;;;;;;10.18;70.66;99977.03;3607155;39;20055;-66
2023/03/25 02:32:17;;;;;;;5.82;1.58;;;;;;;10.21;70.92;99976.78;3607373;39;20054;-68
2023/03/25 02:35:13;;;;;;;5.95;1.58;;;;;;;10.20;70.38;99979.56;3607949;39;20053;-66
2023/03/25 02:38:25;;;;;;;5.30;1.45;;;;;;;10.21;70.75;99981.28;3610542;39;20055;-66
2023/03/25 02:41:24;;;;;;;6.20;1.77;;;;;;;10.22;70.96;99981.19;3606778;39;20464;-66
2023/03/25 02:44:10;;;;;;;4.18;1.27;;;;;;;10.17;71.87;99969.06;3607260;39;20054;-66
2023/03/25 02:46:44;;;;;;;6.03;1.88;;;;;;;10.11;71.79;99972.19;3606553;39;20091;-66
2023/03/25 02:49:32;;;;;;;4.32;1.65;;;;;;;9.75;72.21;99922.94;3607587;39;20119;-67
2023/03/25 02:52:19;;;;;;;5.35;1.55;;;;;;;10.04;72.66;99979.00;3605211;39;20413;-66
2023/03/25 02:54:50;;;;;;;4.43;1.30;;;;;;;9.96;74.84;99971.50;3609292;39;20078;-66
2023/03/25 02:57:21;;;;;;;4.45;1.55;;;;;;;9.70;75.38;99928.59;3607871;39;20355;-67
2023/03/25 02:59:52;;;;;;;6.15;1.75;;;;;;;9.83;75.84;99950.06;3607777;39;20066;-67
2023/03/25 03:02:24;;;;;;;4.15;1.77;;;;;;;9.75;76.19;99964.03;3607310;39;20375;-67
2023/03/25 03:04:55;;;;;;;6.80;1.70;;;;;;;9.78;76.43;99965.66;3606389;39;20127;-67
2023/03/25 03:07:38;;;;;;;6.05;2.00;;;;;;;9.77;75.75;99961.25;3606156;39;20061;-67
2023/03/25 03:10:50;;;;;;;8.97;2.17;;;;;;;9.75;76.42;99952.44;3606367;39;20051;-67
2023/03/25 03:13:55;;;;;;;6.30;1.88;;;;;;;9.78;75.89;99957.59;3605403;39;20346;-68
2023/03/25 03:16:41;;;;;;;6.38;1.92;;;;;;;9.77;76.32;99945.16;3606138;39;20062;-68
2023/03/25 03:19:33;;;;;;;7.43;2.05;;;;;;;9.77;75.90;99934.41;3608181;39;20067;-66
2023/03/25 03:22:52;;;;;;;8.73;2.10;;;;;;;9.78;76.43;99946.84;3609103;39;20051;-66
2023/03/25 03:25:47;;;;;;;7.05;2.00;;;;;;;9.74;75.75;99940.84;3606428;39;20058;-66
2023/03/25 03:28:44;;;;;;;8.05;2.22;;;;;;;9.72;75.66;99952.66;3600783;39;20067;-66
2023/03/25 03:31:40;;;;;;;6.15;1.90;;;;;;;9.75;75.51;99953.28;3605774;39;20082;-66
2023/03/25 03:34:18;;;;;;;7.63;2.00;;;;;;;9.75;75.35;99947.94;3598742;39;20297;-66
2023/03/25 03:36:52;;;;;;;8.88;2.15;;;;;;;9.81;74.31;99957.38;3608889;39;20066;-66
2023/03/25 03:39:41;;;;;;;6.88;1.90;;;;;;;9.80;74.75;99941.34;3607781;39;20050;-67
2023/03/25 03:42:33;;;;;;;8.50;1.73;;;;;;;9.81;74.02;99956.53;3608727;39;20047;-66
2023/03/25 03:45:20;;;;;;;6.53;2.03;;;;;;;9.88;73.74;99950.56;3608770;39;20139;-66
2023/03/25 03:47:54;;;;;;;10.05;2.38;;;;;;;9.89;73.57;99943.38;3609114;39;20050;-66
2023/03/25 03:50:31;;;;;;;9.55;2.40;;;;;;;9.90;74.74;99950.47;3606804;39;20378;-66
2023/03/25 03:53:28;;;;;;;9.80;2.30;;;;;;;9.86;74.51;99947.13;3608789;39;20098;-65
2023/03/25 03:56:31;;;;;;;8.93;1.98;;;;;;;9.78;75.02;99949.53;3607262;39;20055;-66
2023/03/25 03:59:01;;;;;;;6.43;1.60;;;;;;;9.76;74.90;99943.41;3605455;39;20124;-66
2023/03/25 04:01:52;;;;;;;6.20;1.50;;;;;;;9.77;74.28;99947.84;3595539;39;20091;-66
2023/03/25 04:04:25;;;;;;;6.15;1.67;;;;;;;9.64;74.36;99930.88;3606630;39;20043;-67
2023/03/25 04:07:03;;;;;;;7.22;2.08;;;;;;;9.80;74.83;99950.28;3610848;39;20059;-66
2023/03/25 04:09:43;;;;;;;10.77;2.15;;;;;;;9.80;74.16;99955.66;3607982;39;20388;-65
2023/03/25 04:12:21;;;;;;;7.63;2.08;;;;;;;9.82;74.66;99958.22;3609356;39;20270;-66
2023/03/25 04:14:47;;;;;;;4.80;1.40;;;;;;;9.81;74.31;99954.69;3606967;39;21793;-66
2023/03/25 04:17:12;;;;;;;10.18;1.90;;;;;;;9.73;74.48;99943.63;3607959;39;20095;-66
2023/03/25 04:19:38;;;;;;;4.97;1.60;;;;;;;9.76;74.41;99951.47;3610006;39;20065;-66
2023/03/25 04:22:05;;;;;;;8.93;1.92;;;;;;;9.76;73.83;99959.53;3610314;39;20054;-65
2023/03/25 04:24:32;;;;;;;7.50;1.70;;;;;;;9.73;74.02;99965.09;3603644;39;20055;-65
2023/03/25 04:27:02;;;;;;;3.65;1.35;;;;;;;9.71;73.73;99941.06;3607448;39;20055;-66
2023/03/25 04:29:32;;;;;;;6.75;1.75;;;;;;;9.69;73.82;99950.19;3611182;39;20066;-65
2023/03/25 04:31:59;;;;;;;7.10;1.65;;;;;;;9.73;73.91;99959.75;3615964;39;20066;-67
2023/03/25 04:34:26;;;;;;;4.10;1.50;;;;;;;9.73;74.56;99955.22;3612474;39;20531;-66
2023/03/25 04:36:53;;;;;;;5.57;1.48;;;;;;;9.74;74.73;99956.09;3616342;39;20367;-66
2023/03/25 04:39:21;;;;;;;7.07;1.60;;;;;;;9.76;74.68;99956.84;3610798;39;20087;-66
2023/03/25 04:41:48;;;;;;;5.95;1.55;;;;;;;9.74;73.98;99956.09;3600365;39;20132;-66
2023/03/25 04:44:17;;;;;;;6.07;1.65;;;;;;;9.74;74.52;99956.97;3613357;39;20117;-66
2023/03/25 04:46:43;;;;;;;6.15;1.73;;;;;;;9.75;74.00;99963.19;3614207;39;20055;-66
2023/03/25 04:49:20;;;;;;;5.90;1.65;;;;;;;9.58;74.95;99934.88;3609763;39;20116;-66
2023/03/25 04:51:51;;;;;;;8.48;1.90;;;;;;;9.70;75.32;99970.69;3602975;39;20062;-66
2023/03/25 04:54:19;;;;;;;5.65;1.75;;;;;;;9.68;74.64;99962.78;3609788;39;20045;-67
2023/03/25 04:56:48;;;;;;;5.90;1.52;;;;;;;9.71;74.85;99948.28;3611038;39;20267;-66
2023/03/25 04:59:14;;;;;;;6.10;1.77;;;;;;;9.67;75.11;99965.53;3611026;39;20122;-67
2023/03/25 05:01:41;;;;;;;7.88;1.88;;;;;;;9.58;76.09;99942.94;3611676;39;20043;-66
2023/03/25 05:04:11;;;;;;;4.82;1.60;;;;;;;9.65;75.49;99946.03;3607889;39;20380;-66
2023/03/25 05:06:45;;;;;;;5.93;1.80;;;;;;;9.68;75.31;99956.53;3611110;39;20086;-66
2023/03/25 05:09:17;;;;;;;9.23;1.95;;;;;;;9.67;75.79;99954.81;3607831;39;20429;-65
2023/03/25 05:11:45;;;;;;;7.82;1.85;;;;;;;9.54;76.68;99954.84;3609566;39;20387;-66
2023/03/25 05:14:14;;;;;;;8.57;1.80;;;;;;;9.46;76.79;99936.63;3597434;39;20297;-64
2023/03/25 05:16:40;;;;;;;7.07;2.10;;;;;;;9.45;77.34;99934.91;3608259;39;20067;-64
2023/03/25 05:19:07;;;;;;;6.78;1.80;;;;;;;9.49;77.56;99944.44;3606275;39;20081;-63
2023/03/25 05:21:39;;;;;;;5.43;1.60;;;;;;;9.49;76.47;99938.22;3607683;39;20051;-63
2023/03/25 05:24:09;;;;;;;7.33;1.63;;;;;;;9.50;76.53;99948.84;3608249;39;20378;-64
2023/03/25 05:26:38;;;;;;;6.50;1.85;;;;;;;9.50;75.13;99970.31;3609942;39;20308;-65
2023/03/25 05:29:12;;;;;;;6.13;1.50;;;;;;;9.58;75.21;99966.19;3611122;39;20063;-65
2023/03/25 05:31:41;;;;;;;7.43;1.50;;;;;;;9.61;75.16;99971.34;3602753;39;20683;-66
2023/03/25 05:34:07;;;;;;;6.72;1.50;;;;;;;9.62;74.79;99967.72;3610295;39;20054;-67
2023/03/25 05:36:33;;;;;;;5.88;1.70;;;;;;;9.40;74.34;99942.41;3596282;39;20057;-67
2023/03/25 05:39:00;;;;;;;6.90;2.22;;;;;;;9.38;74.45;99922.88;3600727;39;20347;-67
2023/03/25 05:41:49;;;;;;;7.82;1.75;;;;;;;9.67;74.15;99968.22;3599733;39;20051;-67
2023/03/25 05:44:13;;;;;;;8.82;1.58;;;;;;;9.69;72.92;99977.03;3611420;39;20046;-69
2023/03/25 05:46:39;;;;;;;6.97;1.58;;;;;;;9.69;73.48;99975.22;3613075;39;20066;-69
2023/03/25 05:49:05;;;;;;;6.60;1.70;;;;;;;9.75;72.64;99979.28;3613471;39;20050;-69
2023/03/25 05:51:36;;;;;;;7.50;1.63;;;;;;;9.74;72.57;99985.63;3610885;39;20055;-70
2023/03/25 05:54:02;;;;;;;9.00;1.83;;;;;;;9.74;72.29;99983.78;3607152;39;20143;-71
2023/03/25 05:56:28;;;;;;;6.82;2.10;;;;;;;9.76;72.47;99999.78;3609253;39;20050;-71
2023/03/25 05:58:55;;;;;;;7.55;1.95;;;;;;;9.70;71.89;99986.78;3609790;39;20081;-72
2023/03/25 06:01:21;;;;;;;6.80;1.85;;;;;;;9.76;71.86;99986.34;3597302;39;20051;-74
2023/03/25 06:03:47;;;;;;;5.60;1.60;;;;;;;9.11;71.73;99879.28;3594342;39;20370;-74
2023/03/25 06:06:17;;;;;;;6.75;2.03;;;;;;;9.38;71.54;99927.41;3612765;39;20044;-74
2023/03/25 06:08:45;;;;;;;6.88;1.45;;;;;;;9.75;71.89;99996.25;3607697;39;20057;-75
2023/03/25 06:11:12;;;;;;;9.32;1.77;;;;;;;9.47;70.98;99953.56;3606779;39;20051;-74
2023/03/25 06:13:39;;;;;;;6.88;1.77;;;;;;;9.74;71.68;100001.72;3609524;39;20131;-74
2023/03/25 06:16:10;;;;;;;7.75;1.65;;;;;;;9.77;71.31;100014.94;3601388;39;20099;-74
2023/03/25 06:18:36;;;;;;;10.00;1.83;;;;;;;9.69;70.60;99996.69;3607948;39;20053;-74
2023/03/25 06:21:02;;;;;;;11.60;2.25;;;;;;;9.58;70.63;99968.88;3610238;39;20139;-73
2023/03/25 06:23:28;;;;;;;5.88;1.75;;;;;;;9.76;71.05;100010.50;3609881;39;20058;-74
2023/03/25 06:25:54;;;;;;;8.60;2.15;;;;;;;9.80;70.61;100006.66;3608766;39;20071;-74
2023/03/25 06:28:22;;;;;;;8.90;2.17;;;;;;;9.79;70.01;100002.25;3607743;39;20495;-73
2023/03/25 06:30:48;;;;;;;7.85;1.85;;;;;;;9.80;70.13;100003.97;3599140;39;20098;-72
2023/03/25 06:33:18;;;;;;;11.23;2.20;;;;;;;9.86;69.74;99997.28;3612157;39;20058;-72
2023/03/25 06:35:52;;;;;;;6.15;1.85;;;;;;;9.53;70.06;99950.44;3597946;39;20063;-72
2023/03/25 06:38:20;;;;;;;9.15;2.05;;;;;;;9.93;70.32;100004.81;3607221;39;20381;-72
2023/03/25 06:40:46;;;;;;;8.20;1.80;;;;;;;9.94;69.31;100006.50;3608906;39;20051;-72
2023/03/25 06:43:12;;;;;;;8.52;1.85;;;;;;;9.95;69.19;100016.25;3607205;39;20067;-72
2023/03/25 06:45:38;;;;;;;12.45;2.10;;;;;;;9.97;70.19;100019.72;3610325;39;20063;-72
2023/03/25 06:48:04;;;;;;;7.25;1.75;;;;;;;10.04;70.10;100021.97;3608275;39;20144;-71
2023/03/25 06:50:31;;;;;;;8.23;2.17;;;;;;;10.16;69.35;100016.56;3610438;39;20054;-72
2023/03/25 06:52:59;;;;;;;9.27;2.53;;;;;;;10.29;69.58;100021.06;3610579;39;20058;-71
2023/03/25 06:55:25;;;;;;;10.77;2.20;;;;;;;10.27;68.70;100021.16;3608811;39;20043;-71
2023/03/25 06:57:56;;;;;;;7.60;2.20;;;;;;;10.31;68.31;100033.41;3609980;39;20301;-72
2023/03/25 07:00:23;;;;;;;10.40;2.72;;;;;;;10.32;68.83;100031.56;3610514;39;20071;-71
2023/03/25 07:02:49;;;;;;;8.80;2.40;;;;;;;10.24;68.94;100010.59;3607895;39;20722;-71
2023/03/25 07:05:15;;;;;;;10.40;2.25;;;;;;;10.39;68.15;100017.56;3610144;39;20057;-71
2023/03/25 07:07:41;;;;;;;8.88;2.10;;;;;;;10.39;68.26;100031.00;3609814;39;20058;-71
2023/03/25 07:10:07;;;;;;;7.75;2.33;;;;;;;10.42;68.36;100028.09;3609745;39;20097;-70
2023/03/25 07:12:34;;;;;;;12.98;2.25;;;;;;;10.44;68.52;100023.47;3607800;39;20047;-71
2023/03/25 07:15:00;;;;;;;10.40;2.50;;;;;;;10.50;69.24;100026.66;3608709;39;21154;-71
2023/03/25 07:17:26;;;;;;;9.25;1.95;;;;;;;10.46;69.18;99999.16;3608509;39;21552;-71
2023/03/25 07:19:51;;;;;;;10.68;2.50;;;;;;;10.30;68.53;99988.69;3605468;39;21686;-70
2023/03/25 07:22:18;;;;;;;12.15;3.08;;;;;;;10.47;68.57;100014.31;3607514;39;20106;-70
2023/03/25 07:24:43;;;;;;;7.30;2.30;;;;;;;10.43;69.41;100021.75;3607730;39;20051;-69
2023/03/25 07:27:12;;;;;;;10.07;2.10;;;;;;;10.44;69.76;100030.69;3610460;39;20079;-69
2023/03/25 07:29:39;;;;;;;12.90;2.47;;;;;;;10.44;70.19;100026.16;3607211;39;20103;-69
2023/03/25 07:32:06;;;;;;;8.50;2.13;;;;;;;10.38;70.31;100045.41;3609615;39;20061;-69
2023/03/25 07:34:31;;;;;;;11.38;2.33;;;;;;;10.31;70.82;100027.19;3611098;39;20054;-69
2023/03/25 07:36:58;;;;;;;10.65;2.45;;;;;;;10.30;71.75;100039.72;3607475;39;20160;-69
2023/03/25 07:39:24;;;;;;;12.07;2.55;;;;;;;10.23;72.35;100036.59;3608078;39;20067;-69
2023/03/25 07:41:53;;;;;;;9.45;2.13;;;;;;;10.07;72.43;100032.47;3606580;39;20066;-69
2023/03/25 07:44:20;;;;;;;11.75;2.60;;;;;;;10.16;73.32;100058.66;3610740;39;20049;-69
2023/03/25 07:46:47;;;;;;;12.88;2.58;;;;;;;10.10;73.34;100037.63;3607663;39;20046;-69
2023/03/25 07:49:15;;;;;;;14.00;2.35;;;;;;;10.09;72.83;100047.50;3612906;39;20063;-68
2023/03/25 07:51:41;;;;;;;11.18;2.65;;;;;;;10.05;73.58;100050.50;3609448;39;20116;-69
2023/03/25 07:54:07;;;;;;;12.40;2.58;;;;;;;10.03;72.95;100053.31;3612167;39;20046;-69
2023/03/25 07:56:33;;;;;;;10.35;2.50;;;;;;;10.08;73.12;100050.28;3600117;39;20043;-69
2023/03/25 07:58:59;;;;;;;11.98;2.70;;;;;;;10.15;73.42;100046.22;3612300;39;20094;-69
2023/03/25 08:01:25;;;;;;;14.18;2.35;;;;;;;10.20;72.60;100049.41;3610949;39;20042;-70
2023/03/25 08:03:51;;;;;;;11.45;2.25;;;;;;;10.23;72.37;100054.56;3610911;39;20327;-69
2023/03/25 08:06:16;;;;;;;10.93;2.28;;;;;;;10.32;73.38;100053.06;3610481;39;20069;-70
2023/03/25 08:08:42;;;;;;;11.90;2.75;;;;;;;10.48;72.52;100048.28;3606655;39;20091;-70
2023/03/25 08:11:08;;;;;;;12.25;2.42;;;;;;;10.68;71.87;100041.41;3606817;39;20054;-71
2023/03/25 08:13:34;;;;;;;12.68;2.42;;;;;;;11.04;70.87;100069.22;3608269;39;20090;-70
2023/03/25 08:15:59;;;;;;;9.00;2.17;;;;;;;11.12;68.59;100067.63;3610800;39;20103;-70
2023/03/25 08:18:25;;;;;;;10.05;2.38;;;;;;;11.01;69.41;100064.06;3610446;39;20143;-69
2023/03/25 08:20:51;;;;;;;12.45;2.75;;;;;;;10.97;70.29;100081.38;3606630;39;20063;-69
2023/03/25 08:23:19;;;;;;;12.07;2.17;;;;;;;10.43;73.06;100043.25;3608091;39;20070;-69
2023/03/25 08:25:49;;;;;;;17.50;3.22;;;;;;;10.55;73.80;100075.56;3606812;39;20059;-69
2023/03/25 08:28:21;;;;;;;11.18;3.10;;;;;;;10.46;75.66;100093.19;3607235;39;20046;-71
2023/03/25 08:30:54;;;;;;;14.95;3.22;;;;;;;10.40;76.22;100091.84;3609164;39;20405;-69
2023/03/25 08:33:38;;;;;;;13.35;3.33;;;;;;;10.41;76.25;100095.38;3608882;39;20050;-68
2023/03/25 08:36:04;;;;;;;12.73;2.35;;;;;;;10.37;76.64;100089.38;3607731;39;20585;-67
2023/03/25 08:38:30;;;;;;;15.55;2.88;;;;;;;10.21;77.91;100086.03;3609678;39;20327;-67
2023/03/25 08:40:59;;;;;;;13.48;3.13;;;;;;;10.15;78.46;100081.13;3608083;39;20302;-67
2023/03/25 08:43:25;;;;;;;11.20;3.00;;;;;;;10.21;79.37;100096.78;3609962;39;20107;-67
2023/03/25 08:45:52;;;;;;;15.60;3.58;;;;;;;10.22;79.48;100088.63;3606964;39;20067;-66
2023/03/25 08:48:18;;;;;;;14.43;3.00;;;;;;;10.30;79.52;100093.47;3606889;39;20051;-67
2023/03/25 08:50:44;;;;;;;16.92;3.53;;;;;;;10.34;79.79;100099.47;3608445;39;20050;-67
2023/03/25 08:53:10;;;;;;;18.13;5.93;;;;;;;10.37;79.35;100089.38;3608709;39;20050;-67
2023/03/25 08:55:39;;;;;;;51.58;33.40;;;;;;;10.62;78.08;100095.63;3610129;39;20185;-68
2023/03/25 08:58:07;;;;;;;11.85;3.00;;;;;;;10.85;77.74;100093.94;3608024;39;20058;-67
2023/03/25 09:00:36;;;;;;;20.25;3.38;;;;;;;10.82;76.50;100068.13;3607935;39;20055;-67
2023/03/25 09:03:05;;;;;;;9.90;2.80;;;;;;;11.00;75.41;100091.91;3607967;39;20077;-67
2023/03/25 09:05:31;;;;;;;14.32;2.85;;;;;;;11.09;75.98;100096.59;3610475;39;20066;-67
2023/03/25 09:07:57;;;;;;;21.35;3.60;;;;;;;11.22;74.72;100088.44;3606241;39;20081;-68
2023/03/25 09:10:22;;;;;;;14.65;2.90;;;;;;;11.33;75.30;100089.34;3608725;39;20329;-69
2023/03/25 09:12:48;;;;;;;10.55;2.65;;;;;;;11.66;75.32;100070.69;3605468;39;20058;-70
2023/03/25 09:15:14;;;;;;;12.88;3.33;;;;;;;12.17;73.35;100087.25;3608349;39;20057;-71
2023/03/25 09:17:41;;;;;;;12.23;2.97;;;;;;;12.36;69.97;100093.88;3607016;39;20067;-73
2023/03/25 09:20:07;;;;;;;15.40;3.00;;;;;;;12.41;70.53;100087.13;3611379;39;20701;-73
2023/03/25 09:22:35;;;;;;;11.45;2.78;;;;;;;12.77;70.68;100088.63;3609721;39;20424;-75
2023/03/25 09:25:01;;;;;;;14.63;2.88;;;;;;;13.15;68.49;100081.88;3612373;39;20062;-76
2023/03/25 09:27:26;;;;;;;15.45;3.47;;;;;;;13.41;66.54;100093.19;3609123;39;20074;-76
2023/03/25 09:29:52;;;;;;;11.18;2.47;;;;;;;13.55;65.13;100099.25;3608551;39;20158;-74
2023/03/25 09:32:18;;;;;;;11.48;2.78;;;;;;;13.52;65.28;100116.56;3609005;39;20086;-73
2023/03/25 09:34:44;;;;;;;12.80;2.90;;;;;;;13.56;65.15;100092.88;3598490;39;20393;-73
2023/03/25 09:37:11;;;;;;;17.20;3.40;;;;;;;13.76;65.31;100104.63;3605459;39;20597;-73
2023/03/25 09:39:36;;;;;;;12.98;3.22;;;;;;;13.91;64.61;100093.34;3596373;39;20057;-72
2023/03/25 09:42:34;;;;;;;18.52;3.67;;;;;;;14.22;63.93;100104.16;3609103;39;20066;-72
2023/03/25 09:45:35;;;;;;;23.55;11.25;;;;;;;14.26;62.35;100099.34;3608837;39;20401;-71
2023/03/25 09:48:37;;;;;;;11.23;2.70;;;;;;;14.09;62.03;100088.19;3591037;39;20066;-71
2023/03/25 09:51:24;;;;;;;12.73;3.25;;;;;;;14.25;62.20;100114.72;3606679;39;20374;-71
2023/03/25 09:54:17;;;;;;;12.70;3.10;;;;;;;13.93;61.08;100115.69;3608544;39;20073;-70
2023/03/25 09:56:43;;;;;;;11.70;2.78;;;;;;;13.97;61.60;100100.06;3605719;39;20468;-70
2023/03/25 09:59:23;;;;;;;12.15;2.72;;;;;;;13.91;60.43;100092.50;3607893;39;20159;-70
2023/03/25 10:02:25;;;;;;;10.40;2.78;;;;;;;14.26;60.30;100126.38;3606653;39;20317;-69
2023/03/25 10:05:35;;;;;;;14.10;2.72;;;;;;;14.37;59.91;100107.38;3608232;39;20054;-70
2023/03/25 10:08:21;;;;;;;10.32;2.55;;;;;;;14.40;60.38;100109.81;3609586;39;20058;-69
2023/03/25 10:11:00;;;;;;;13.48;3.17;;;;;;;14.33;61.00;100077.03;3609928;39;20063;-69
2023/03/25 10:14:03;;;;;;;14.57;3.10;;;;;;;14.50;60.54;100080.09;3609495;39;20116;-70
2023/03/25 10:16:57;;;;;;;12.93;3.25;;;;;;;14.87;59.54;100110.06;3606658;39;20043;-69
2023/03/25 10:19:40;;;;;;;;;;;;;;;14.81;57.06;100099.81;3611353;39;20062;-69
2023/03/25 10:22:17;;;;;;;17.35;3.53;;;;;;;14.56;57.73;100091.22;3610876;39;20253;-69
2023/03/25 10:24:56;;;;;;;14.27;3.05;;;;;;;14.61;57.95;100113.28;3611969;39;20047;-69
2023/03/25 10:27:37;;;;;;;10.45;2.58;;;;;;;14.56;59.38;100120.13;3608101;39;20087;-69
2023/03/25 10:30:08;;;;;;;16.60;3.08;;;;;;;14.60;59.87;100111.59;3609603;39;20062;-69
2023/03/25 10:33:14;;;;;;;14.18;3.83;;;;;;;14.50;57.92;100113.38;3607402;39;20062;-70
2023/03/25 10:35:47;;;;;;;13.75;3.33;;;;;;;14.44;58.98;100124.75;3602397;39;20062;-70
2023/03/25 10:38:20;;;;;;;13.73;3.50;;;;;;;14.36;57.51;100101.06;3609389;39;20063;-69
2023/03/25 10:40:52;;;;;;;15.10;3.42;;;;;;;14.46;57.59;100105.66;3611311;39;20043;-69
2023/03/25 10:43:39;;;;;;;16.13;3.97;;;;;;;14.65;57.53;100115.72;3609519;39;20094;-69
2023/03/25 10:46:46;;;;;;;14.00;3.67;;;;;;;14.75;54.26;100130.16;3606054;39;20327;-67
2023/03/25 10:49:19;;;;;;;14.23;2.83;;;;;;;14.89;54.18;100118.91;3608580;39;20050;-69
2023/03/25 10:51:48;;;;;;;;;;;;;;;14.96;53.88;100120.06;3607464;39;20073;-69
2023/03/25 10:54:17;;;;;;;10.57;2.80;;;;;;;14.99;52.54;100111.66;3608846;39;19940;-69
2023/03/25 10:56:50;;;;;;;11.93;3.05;;;;;;;15.20;52.75;100107.97;3606266;39;20054;-69
2023/03/25 10:59:34;;;;;;;20.10;11.15;;;;;;;15.42;53.03;100118.53;3608263;39;20054;-70
2023/03/25 11:02:16;;;;;;;24.60;13.75;;;;;;;15.72;49.90;100114.78;3608568;39;20413;-71
2023/03/25 11:04:46;;;;;;;8.75;2.50;;;;;;;15.77;48.11;100126.06;3607029;39;20085;-70
2023/03/25 11:07:47;;;;;;;11.27;2.70;;;;;;;15.94;48.38;100129.00;3607305;39;20362;-69
2023/03/25 11:10:13;;;;;;;11.88;2.50;;;;;;;15.78;48.01;100124.19;3587708;39;20050;-70
2023/03/25 11:12:45;;;;;;;10.32;2.38;;;;;;;15.71;48.35;100120.38;3607270;39;20054;-70
2023/03/25 11:15:23;;;;;;;8.05;2.17;;;;;;;15.45;48.15;100137.19;3606937;39;20123;-70
2023/03/25 11:18:33;;;;;;;9.43;2.25;;;;;;;15.00;47.35;100089.03;3597253;39;20066;-69
2023/03/25 11:21:09;;;;;;;8.38;1.92;;;;;;;15.17;46.47;100122.66;3608234;39;20058;-70
2023/03/25 11:23:43;;;;;;;6.63;1.70;;;;;;;15.17;46.96;100152.44;3609147;39;20059;-67
2023/03/25 11:26:40;;;;;;;7.32;2.17;;;;;;;15.06;47.54;100137.19;3611963;39;20452;-71
2023/03/25 11:29:14;;;;;;;7.22;1.92;;;;;;;14.96;47.82;100139.00;3611457;39;20051;-71
2023/03/25 11:31:42;;;;;;;7.00;1.85;;;;;;;14.85;47.99;100155.38;3606960;39;20047;-68
2023/03/25 11:34:21;;;;;;;10.73;2.13;;;;;;;14.83;48.88;100136.56;3613883;39;20374;-69
2023/03/25 11:37:03;;;;;;;9.68;2.25;;;;;;;15.12;49.04;100140.31;3607769;39;20062;-69
2023/03/25 11:39:38;;;;;;;9.65;2.45;;;;;;;15.01;48.06;100144.84;3607787;39;20346;-69
2023/03/25 11:42:27;;;;;;;9.65;2.65;;;;;;;14.89;48.18;100161.34;3608174;39;20222;-69
2023/03/25 11:44:58;;;;;;;10.05;2.17;;;;;;;14.78;48.18;100143.38;3610467;39;20371;-69
2023/03/25 11:47:39;;;;;;;7.10;1.95;;;;;;;14.62;48.83;100133.09;3610758;39;20408;-69
2023/03/25 11:50:06;;;;;;;5.95;1.92;;;;;;;14.49;49.28;100164.88;3608943;39;20055;-69
2023/03/25 11:52:44;;;;;;;9.63;2.28;;;;;;;14.23;49.02;100129.34;3606334;39;20075;-69
2023/03/25 11:55:24;;;;;;;8.73;2.47;;;;;;;14.26;50.43;100145.31;3607014;39;20120;-69
2023/03/25 11:57:55;;;;;;;12.27;2.53;;;;;;;14.29;51.08;100140.47;3604276;39;20051;-69
2023/03/25 12:00:49;;;;;;;9.85;2.88;;;;;;;14.30;53.66;100104.34;3606201;39;20098;-69